createdAt,value
2017-09-12T00:01:51.379Z,99878.26
2017-09-12T00:04:19.800Z,99878.52
2017-09-12T00:06:48.237Z,99878.84
2017-09-12T00:09:16.655Z,99875.66
2017-09-12T00:11:45.859Z,99875.14
2017-09-12T00:14:14.275Z,99883.00
2017-09-12T00:16:42.725Z,99879.52
2017-09-12T00:19:11.208Z,99880.17
2017-09-12T00:21:39.646Z,99887.30
2017-09-12T00:24:08.063Z,99884.61
2017-09-12T00:26:36.550Z,99888.12
2017-09-12T00:29:04.971Z,99899.56
2017-09-12T00:31:33.411Z,99904.66
2017-09-12T00:34:01.831Z,99905.66
2017-09-12T00:36:30.384Z,99908.64
2017-09-12T00:38:58.799Z,99901.02
2017-09-12T00:41:27.244Z,99908.31
2017-09-12T00:43:55.669Z,99902.95
2017-09-12T00:46:24.116Z,99908.38
2017-09-12T00:48:52.545Z,99904.34
2017-09-12T00:51:20.988Z,99908.23
2017-09-12T00:53:49.411Z,99904.77
2017-09-12T00:56:18.620Z,99903.77
2017-09-12T00:58:47.838Z,99899.91
2017-09-12T01:01:16.332Z,99899.07
2017-09-12T01:03:44.803Z,99894.53
2017-09-12T01:06:13.271Z,99894.21
2017-09-12T01:08:42.463Z,99886.48
2017-09-12T01:11:11.647Z,99896.97
2017-09-12T01:13:40.084Z,99901.55
2017-09-12T01:16:08.508Z,99892.56
2017-09-12T01:18:36.946Z,99889.74
2017-09-12T01:21:05.411Z,99892.76
2017-09-12T01:23:33.847Z,99886.23
2017-09-12T01:26:02.372Z,99887.63
2017-09-12T01:28:30.807Z,99889.00
2017-09-12T01:30:59.335Z,99887.89
2017-09-12T01:33:27.814Z,99882.45
2017-09-12T01:35:56.301Z,99892.44
2017-09-12T01:38:24.780Z,99893.95
2017-09-12T01:40:53.199Z,99894.86
2017-09-12T01:43:21.748Z,99895.45
2017-09-12T01:45:50.163Z,99894.93
2017-09-12T01:48:18.607Z,99887.53
2017-09-12T01:50:47.092Z,99889.70
2017-09-12T01:53:15.531Z,99889.28
2017-09-12T01:55:44.055Z,99889.88
2017-09-12T01:58:12.494Z,99887.02
2017-09-12T02:00:40.913Z,99885.81
2017-09-12T02:03:09.358Z,99880.23
2017-09-12T02:05:37.780Z,99891.52
2017-09-12T02:08:06.219Z,99888.27
2017-09-12T02:10:34.740Z,99893.82
2017-09-12T02:13:03.183Z,99884.77
2017-09-12T02:15:31.604Z,99887.53
2017-09-12T02:18:00.037Z,99886.81
2017-09-12T02:20:28.455Z,99883.05
2017-09-12T02:22:57.660Z,99881.30
2017-09-12T02:25:26.144Z,99880.97
2017-09-12T02:27:54.586Z,99883.62
2017-09-12T02:30:24.747Z,99892.41
2017-09-12T02:32:53.185Z,99897.50
2017-09-12T02:35:21.604Z,99899.28
2017-09-12T02:37:50.044Z,99902.78
2017-09-12T02:40:18.464Z,99894.13
2017-09-12T02:42:46.957Z,99887.96
2017-09-12T02:45:15.380Z,99897.38
2017-09-12T02:47:43.805Z,99891.92
2017-09-12T02:50:13.119Z,99886.54
2017-09-12T02:52:41.548Z,99892.78
2017-09-12T02:55:10.080Z,99897.28
2017-09-12T02:57:38.494Z,99892.88
2017-09-12T03:00:06.930Z,99891.25
2017-09-12T03:02:36.111Z,99888.30
2017-09-12T03:05:05.344Z,99896.14
2017-09-12T03:07:33.823Z,99894.99
2017-09-12T03:10:02.308Z,99895.42
2017-09-12T03:12:30.723Z,99891.23
2017-09-12T03:14:59.262Z,99898.70
2017-09-12T03:17:27.687Z,99888.06
2017-09-12T03:19:56.127Z,99890.12
2017-09-12T03:22:24.610Z,99896.72
2017-09-12T03:24:53.047Z,99890.39
2017-09-12T03:27:21.463Z,99899.61
2017-09-12T03:29:50.671Z,99905.37
2017-09-12T03:32:19.089Z,99898.25
2017-09-12T03:34:47.531Z,99894.48
2017-09-12T03:37:15.947Z,99901.94
2017-09-12T03:39:44.387Z,99905.97
2017-09-12T03:42:12.803Z,99902.59
2017-09-12T03:44:41.243Z,99903.41
2017-09-12T03:47:10.451Z,99902.26
2017-09-12T03:49:38.891Z,99910.13
2017-09-12T03:52:07.308Z,99907.98
2017-09-12T03:54:36.519Z,99912.77
2017-09-12T03:57:04.943Z,99917.37
2017-09-12T03:59:33.484Z,99912.56
2017-09-12T04:02:01.907Z,99913.56
2017-09-12T04:04:30.347Z,99914.56
2017-09-12T04:06:58.824Z,99916.03
2017-09-12T04:09:27.259Z,99918.87
2017-09-12T04:11:55.680Z,99923.98
2017-09-12T04:14:24.119Z,99923.96
2017-09-12T04:16:52.538Z,99933.42
2017-09-12T04:19:21.747Z,99934.17
2017-09-12T04:21:50.165Z,99933.75
2017-09-12T04:24:18.602Z,99932.19
2017-09-12T04:26:47.019Z,99933.75
2017-09-12T04:29:15.459Z,99934.08
2017-09-12T04:31:44.667Z,99931.80
2017-09-12T04:34:13.152Z,99933.57
2017-09-12T04:36:41.576Z,99929.56
2017-09-12T04:39:10.006Z,99935.14
2017-09-12T04:41:38.435Z,99926.03
2017-09-12T04:44:06.877Z,99924.05
2017-09-12T04:46:35.299Z,99915.84
2017-09-12T04:49:03.716Z,99919.59
2017-09-12T04:51:32.928Z,99926.94
2017-09-12T04:54:01.352Z,99930.11
2017-09-12T04:56:29.795Z,99939.09
2017-09-12T04:58:58.217Z,99939.96
2017-09-12T05:01:26.656Z,99936.25
2017-09-12T05:03:55.075Z,99933.84
2017-09-12T05:06:23.516Z,99942.91
2017-09-12T05:08:51.940Z,99935.81
2017-09-12T05:11:20.488Z,99933.50
2017-09-12T05:13:48.907Z,99943.31
2017-09-12T05:16:17.347Z,99943.98
2017-09-12T05:18:45.832Z,99944.55
2017-09-12T05:21:14.303Z,99944.36
2017-09-12T05:23:42.724Z,99953.67
2017-09-12T05:26:11.164Z,99957.83
2017-09-12T05:28:39.583Z,99955.95
2017-09-12T05:31:08.136Z,99961.63
2017-09-12T05:33:36.615Z,99963.25
2017-09-12T05:36:05.061Z,99967.44
2017-09-12T05:38:33.488Z,99965.27
2017-09-12T05:41:01.931Z,99972.70
2017-09-12T05:43:31.123Z,99975.31
2017-09-12T05:46:01.176Z,99977.27
2017-09-12T05:48:29.596Z,99977.82
2017-09-12T05:50:58.139Z,99974.34
2017-09-12T05:53:26.560Z,99981.39
2017-09-12T05:55:55.103Z,99974.16
2017-09-12T05:58:23.523Z,99974.30
2017-09-12T06:00:52.068Z,99969.66
2017-09-12T06:03:20.551Z,99976.30
2017-09-12T06:05:48.991Z,99979.68
2017-09-12T06:08:17.415Z,99980.03
2017-09-12T06:10:45.856Z,99974.31
2017-09-12T06:13:14.796Z,99981.81
2017-09-12T06:15:43.266Z,99985.28
2017-09-12T06:18:11.691Z,99987.66
2017-09-12T06:20:40.132Z,99982.64
2017-09-12T06:23:08.551Z,99979.88
2017-09-12T06:25:36.983Z,99979.34
2017-09-12T06:28:06.191Z,99985.73
2017-09-12T06:30:34.634Z,99984.33
2017-09-12T06:33:03.051Z,99990.88
2017-09-12T06:35:31.487Z,99985.44
2017-09-12T06:38:00.016Z,99997.14
2017-09-12T06:40:28.455Z,99989.09
2017-09-12T06:42:56.980Z,99997.94
2017-09-12T06:45:25.463Z,99989.28
2017-09-12T06:47:53.879Z,99992.24
2017-09-12T06:50:22.298Z,99998.31
2017-09-12T06:52:51.509Z,99999.64
2017-09-12T06:55:20.704Z,100000.05
2017-09-12T06:57:49.916Z,100003.06
2017-09-12T07:00:18.340Z,100005.74
2017-09-12T07:02:46.787Z,100018.57
2017-09-12T07:05:15.209Z,100012.89
2017-09-12T07:07:43.651Z,100019.00
2017-09-12T07:10:12.076Z,100008.95
2017-09-12T07:12:40.607Z,100005.54
2017-09-12T07:15:09.036Z,100009.77
2017-09-12T07:17:37.488Z,100007.58
2017-09-12T07:20:05.912Z,100013.45
2017-09-12T07:22:34.435Z,100011.38
2017-09-12T07:25:02.860Z,100018.19
2017-09-12T07:27:31.304Z,100013.92
2017-09-12T07:29:59.735Z,100016.70
2017-09-12T07:32:28.188Z,100011.19
2017-09-12T07:34:56.663Z,100018.20
2017-09-12T07:37:25.124Z,100017.05
2017-09-12T07:39:53.548Z,100020.34
2017-09-12T07:42:21.991Z,100021.84
2017-09-12T07:44:50.412Z,100029.42
2017-09-12T07:47:18.947Z,100033.72
2017-09-12T07:49:47.372Z,100035.30
2017-09-12T07:52:15.810Z,100038.17
2017-09-12T07:54:44.291Z,100052.09
2017-09-12T07:57:12.776Z,100057.11
2017-09-12T07:59:41.204Z,100044.39
2017-09-12T08:02:09.731Z,100043.52
2017-09-12T08:04:38.151Z,100051.42
2017-09-12T08:07:06.599Z,100052.47
2017-09-12T08:09:35.020Z,100057.03
2017-09-12T08:12:03.463Z,100061.86
2017-09-12T08:14:31.979Z,100060.08
2017-09-12T08:17:00.403Z,100061.91
2017-09-12T08:19:29.591Z,100063.82
2017-09-12T08:21:58.807Z,100073.33
2017-09-12T08:24:27.996Z,100068.50
2017-09-12T08:26:57.324Z,100062.46
2017-09-12T08:29:25.752Z,100061.65
2017-09-12T08:31:54.287Z,100065.92
2017-09-12T08:34:22.711Z,100060.48
2017-09-12T08:36:51.252Z,100065.15
2017-09-12T08:39:19.671Z,100062.12
2017-09-12T08:41:48.112Z,100065.86
2017-09-12T08:44:16.535Z,100069.30
2017-09-12T08:46:44.985Z,100070.82
2017-09-12T08:49:13.416Z,100075.64
2017-09-12T08:51:41.838Z,100075.34
2017-09-12T08:54:10.283Z,100068.91
2017-09-12T08:56:39.476Z,100075.08
2017-09-12T08:59:07.919Z,100068.76
2017-09-12T09:01:36.379Z,100063.09
2017-09-12T09:04:04.824Z,100068.47
2017-09-12T09:06:33.252Z,100071.36
2017-09-12T09:09:01.694Z,100065.48
2017-09-12T09:11:30.938Z,100069.41
2017-09-12T09:13:59.384Z,100069.53
2017-09-12T09:16:28.579Z,100069.53
2017-09-12T09:18:57.791Z,100068.67
2017-09-12T09:21:26.211Z,100071.11
2017-09-12T09:23:54.743Z,100067.33
2017-09-12T09:26:23.935Z,100064.78
2017-09-12T09:28:53.165Z,100059.86
2017-09-12T09:31:21.596Z,100066.58
2017-09-12T09:33:50.043Z,100065.02
2017-09-12T09:36:18.471Z,100066.66
2017-09-12T09:38:47.687Z,100075.22
2017-09-12T09:41:16.870Z,100079.52
2017-09-12T09:43:46.104Z,100076.02
2017-09-12T09:46:14.523Z,100075.43
2017-09-12T09:48:42.967Z,100071.70
2017-09-12T09:51:11.388Z,100071.34
2017-09-12T09:53:39.831Z,100077.04
2017-09-12T09:56:08.252Z,100084.91
2017-09-12T09:58:37.252Z,100078.17
2017-09-12T10:01:05.680Z,100086.52
2017-09-12T10:03:34.165Z,100094.40
2017-09-12T10:06:02.583Z,100106.71
2017-09-12T10:08:31.127Z,100105.96
2017-09-12T10:10:59.612Z,100104.87
2017-09-12T10:13:28.075Z,100110.73
2017-09-12T10:15:56.508Z,100117.98
2017-09-12T10:18:24.947Z,100120.94
2017-09-12T10:20:53.363Z,100122.41
2017-09-12T10:23:21.911Z,100126.08
2017-09-12T10:25:50.395Z,100124.05
2017-09-12T10:28:18.875Z,100123.50
2017-09-12T10:30:47.360Z,100128.26
2017-09-12T10:33:15.837Z,100122.22
2017-09-12T10:35:44.260Z,100114.52
2017-09-12T10:38:12.704Z,100121.70
2017-09-12T10:40:41.127Z,100121.48
2017-09-12T10:43:09.569Z,100123.80
2017-09-12T10:45:37.992Z,100126.61
2017-09-12T10:48:06.440Z,100122.95
2017-09-12T10:50:34.907Z,100126.13
2017-09-12T10:53:03.331Z,100124.87
2017-09-12T10:55:31.876Z,100128.61
2017-09-12T10:58:00.306Z,100127.53
2017-09-12T11:00:29.506Z,100140.72
2017-09-12T11:02:57.931Z,100140.71
2017-09-12T11:05:26.380Z,100135.03
2017-09-12T11:07:55.572Z,100136.78
2017-09-12T11:10:24.014Z,100137.26
2017-09-12T11:12:52.435Z,100131.63
2017-09-12T11:15:21.644Z,100133.69
2017-09-12T11:17:50.836Z,100133.92
2017-09-12T11:20:20.787Z,100138.94
2017-09-12T11:22:49.210Z,100140.12
2017-09-12T11:25:17.755Z,100149.94
2017-09-12T11:27:46.239Z,100149.42
2017-09-12T11:30:14.687Z,100141.14
2017-09-12T11:32:43.892Z,100141.98
2017-09-12T11:35:13.108Z,100163.22
2017-09-12T11:37:41.599Z,100142.23
2017-09-12T11:40:10.079Z,100137.05
2017-09-12T11:42:38.503Z,100144.63
2017-09-12T11:45:06.952Z,100153.38
2017-09-12T11:47:35.384Z,100148.14
2017-09-12T11:50:04.625Z,100150.55
2017-09-12T11:52:33.108Z,100155.70
2017-09-12T11:55:01.555Z,100160.58
2017-09-12T11:57:30.756Z,100159.33
2017-09-12T11:59:59.963Z,100164.08
2017-09-12T12:02:29.179Z,100165.47
2017-09-12T12:04:57.619Z,100162.67
2017-09-12T12:07:26.869Z,100157.33
2017-09-12T12:09:55.315Z,100160.03
2017-09-12T12:12:24.503Z,100166.61
2017-09-12T12:14:52.980Z,100164.17
2017-09-12T12:17:21.406Z,100165.57
2017-09-12T12:19:49.855Z,100161.96
2017-09-12T12:22:18.281Z,100159.02
2017-09-12T12:24:46.747Z,100153.09
2017-09-12T12:27:15.240Z,100160.27
2017-09-12T12:29:43.688Z,100153.20
2017-09-12T12:32:13.119Z,100159.37
2017-09-12T12:34:41.599Z,100174.12
2017-09-12T12:37:10.100Z,100165.61
2017-09-12T12:39:38.543Z,100170.67
2017-09-12T12:42:07.731Z,100171.02
2017-09-12T12:44:36.947Z,100181.28
2017-09-12T12:47:06.921Z,100175.66
2017-09-12T12:49:35.367Z,100173.63
2017-09-12T12:52:03.843Z,100175.87
2017-09-12T12:54:32.287Z,100185.38
2017-09-12T12:57:01.484Z,100179.44
2017-09-12T12:59:30.715Z,100184.67
2017-09-12T13:01:59.203Z,100181.83
2017-09-12T13:04:27.631Z,100174.36
2017-09-12T13:06:56.167Z,100171.97
2017-09-12T13:09:24.595Z,100169.73
2017-09-12T13:11:53.040Z,100177.19
2017-09-12T13:14:21.464Z,100176.28
2017-09-12T13:16:49.907Z,100180.14
2017-09-12T13:19:18.339Z,100185.81
2017-09-12T13:21:47.560Z,100190.05
2017-09-12T13:24:16.771Z,100202.41
2017-09-12T13:26:45.223Z,100194.50
2017-09-12T13:29:14.410Z,100190.77
2017-09-12T13:31:44.358Z,100194.39
2017-09-12T13:34:12.856Z,100188.77
2017-09-12T13:36:41.299Z,100191.53
2017-09-12T13:39:10.651Z,100198.80
2017-09-12T13:41:39.091Z,100204.22
2017-09-12T13:44:08.279Z,100212.66
2017-09-12T13:46:37.495Z,100228.07
2017-09-12T13:49:06.707Z,100237.75
2017-09-12T13:51:35.151Z,100237.81
2017-09-12T13:54:03.667Z,100246.73
2017-09-12T13:56:32.114Z,100247.45
2017-09-12T13:59:00.536Z,100245.39
2017-09-12T14:01:28.979Z,100249.38
2017-09-12T14:03:57.399Z,100250.97
2017-09-12T14:06:25.879Z,100248.59
2017-09-12T14:08:54.294Z,100256.35
2017-09-12T14:11:22.743Z,100252.47
2017-09-12T14:13:51.172Z,100257.84
2017-09-12T14:16:19.721Z,100256.28
2017-09-12T14:18:48.143Z,100260.97
2017-09-12T14:21:16.584Z,100259.10
2017-09-12T14:23:45.011Z,100260.11
2017-09-12T14:26:14.232Z,100258.78
2017-09-12T14:28:43.423Z,100261.98
2017-09-12T14:31:12.635Z,100267.16
2017-09-12T14:33:41.843Z,100266.14
2017-09-12T14:36:10.296Z,100276.72
2017-09-12T14:38:39.495Z,100276.46
2017-09-12T14:41:08.724Z,100283.16
2017-09-12T14:43:37.152Z,100276.09
2017-09-12T14:46:05.601Z,100271.95
2017-09-12T14:48:34.022Z,100267.91
2017-09-12T14:51:02.462Z,100262.47
2017-09-12T14:53:30.892Z,100262.66
2017-09-12T14:56:00.128Z,100267.37
2017-09-12T14:58:28.607Z,100265.52
2017-09-12T15:00:57.042Z,100270.87
2017-09-12T15:03:25.467Z,100269.95
2017-09-12T15:05:53.916Z,100270.67
2017-09-12T15:08:23.847Z,100270.83
2017-09-12T15:10:53.075Z,100267.01
2017-09-12T15:13:21.503Z,100272.33
2017-09-12T15:15:49.935Z,100270.67
2017-09-12T15:18:18.385Z,100266.75
2017-09-12T15:20:47.571Z,100277.85
2017-09-12T15:23:16.091Z,100266.20
2017-09-12T15:25:44.511Z,100275.31
2017-09-12T15:28:12.951Z,100284.22
2017-09-12T15:30:41.439Z,100287.72
2017-09-12T15:33:09.914Z,100289.77
2017-09-12T15:35:38.340Z,100289.61
2017-09-12T15:38:06.884Z,100295.53
2017-09-12T15:40:35.374Z,100284.81
2017-09-12T15:43:03.847Z,100293.08
2017-09-12T15:45:32.272Z,100289.72
2017-09-12T15:48:00.724Z,100291.91
2017-09-12T15:50:29.148Z,100287.55
2017-09-12T15:52:57.599Z,100295.43
2017-09-12T15:55:26.050Z,100294.87
2017-09-12T15:57:54.491Z,100297.03
2017-09-12T16:00:23.688Z,100298.73
2017-09-12T16:02:53.027Z,100297.09
2017-09-12T16:05:21.516Z,100296.84
2017-09-12T16:07:49.964Z,100308.02
2017-09-12T16:10:19.151Z,100313.53
2017-09-12T16:12:47.596Z,100312.97
2017-09-12T16:15:16.024Z,100311.78
2017-09-12T16:17:45.235Z,100318.62
2017-09-12T16:20:14.423Z,100318.20
2017-09-12T16:22:43.632Z,100319.06
2017-09-12T16:25:12.827Z,100320.96
2017-09-12T16:27:42.152Z,100322.53
2017-09-12T16:30:10.571Z,100323.65
2017-09-12T16:32:39.011Z,100320.98
2017-09-12T16:35:07.490Z,100324.41
2017-09-12T16:37:35.907Z,100327.30
2017-09-12T16:40:04.361Z,100327.61
2017-09-12T16:42:32.839Z,100328.26
2017-09-12T16:45:01.292Z,100327.72
2017-09-12T16:47:30.488Z,100322.78
2017-09-12T16:49:59.716Z,100325.64
2017-09-12T16:52:28.199Z,100321.03
2017-09-12T16:54:56.683Z,100323.36
2017-09-12T16:57:25.162Z,100327.78
2017-09-12T16:59:53.646Z,100326.34
2017-09-12T17:02:22.068Z,100332.77
2017-09-12T17:04:50.511Z,100341.09
2017-09-12T17:07:18.987Z,100336.45
2017-09-12T17:09:47.471Z,100341.17
2017-09-12T17:12:15.896Z,100344.98
2017-09-12T17:14:44.439Z,100353.02
2017-09-12T17:17:12.928Z,100362.95
2017-09-12T17:19:41.372Z,100381.79
2017-09-12T17:22:10.569Z,100385.14
2017-09-12T17:24:39.795Z,100396.61
2017-09-12T17:27:08.225Z,100398.30
2017-09-12T17:29:36.672Z,100401.67
2017-09-12T17:32:05.101Z,100415.50
2017-09-12T17:34:34.319Z,100426.39
2017-09-12T17:37:03.511Z,100431.81
2017-09-12T17:39:32.723Z,100425.28
2017-09-12T17:42:01.907Z,100431.66
2017-09-12T17:44:31.303Z,100433.22
2017-09-12T17:46:59.823Z,100432.43
2017-09-12T17:49:28.238Z,100425.64
2017-09-12T17:51:56.788Z,100420.73
2017-09-12T17:54:25.272Z,100416.17
2017-09-12T17:56:53.723Z,100420.43
2017-09-12T17:59:22.916Z,100420.13
2017-09-12T18:01:52.131Z,100419.34
2017-09-12T18:04:21.652Z,100413.15
2017-09-12T18:06:50.096Z,100410.16
2017-09-12T18:09:18.620Z,100417.70
2017-09-12T18:11:47.107Z,100420.83
2017-09-12T18:14:15.588Z,100413.00
2017-09-12T18:16:44.035Z,100418.51
2017-09-12T18:19:13.227Z,100415.20
2017-09-12T18:21:41.748Z,100423.42
2017-09-12T18:24:10.172Z,100426.64
2017-09-12T18:26:38.727Z,100430.61
2017-09-12T18:29:07.191Z,100430.16
2017-09-12T18:31:35.639Z,100430.16
2017-09-12T18:34:04.161Z,100425.95
2017-09-12T18:36:32.599Z,100431.14
2017-09-12T18:39:01.020Z,100432.52
2017-09-12T18:41:29.456Z,100442.08
2017-09-12T18:43:57.983Z,100447.19
2017-09-12T18:46:26.459Z,100454.80
2017-09-12T18:48:54.943Z,100453.74
2017-09-12T18:51:23.364Z,100461.58
2017-09-12T18:53:51.904Z,100463.56
2017-09-12T18:56:20.324Z,100463.65
2017-09-12T18:58:48.868Z,100454.75
2017-09-12T19:01:17.295Z,100457.59
2017-09-12T19:03:45.739Z,100456.92
2017-09-12T19:06:14.211Z,100457.84
2017-09-12T19:08:42.655Z,100460.58
2017-09-12T19:11:11.075Z,100464.97
2017-09-12T19:13:39.509Z,100457.71
2017-09-12T19:16:07.935Z,100459.16
2017-09-12T19:18:36.415Z,100467.93
2017-09-12T19:21:04.836Z,100470.97
2017-09-12T19:23:34.003Z,100476.39
2017-09-12T19:26:02.723Z,100479.90
2017-09-12T19:28:31.151Z,100483.97
2017-09-12T19:31:00.385Z,100490.22
2017-09-12T19:33:28.851Z,100480.03
2017-09-12T19:35:57.300Z,100491.63
2017-09-12T19:38:26.532Z,100499.99
2017-09-12T19:40:54.979Z,100493.19
2017-09-12T19:43:24.166Z,100486.50
2017-09-12T19:45:52.695Z,100486.18
2017-09-12T19:48:21.115Z,100488.81
2017-09-12T19:50:49.659Z,100490.92
2017-09-12T19:53:18.084Z,100480.98
2017-09-12T19:55:46.620Z,100488.33
2017-09-12T19:58:15.039Z,100491.39
2017-09-12T20:00:43.484Z,100496.69
2017-09-12T20:03:11.903Z,100491.08
2017-09-12T20:05:40.357Z,100488.49
2017-09-12T20:08:08.783Z,100489.44
2017-09-12T20:10:37.223Z,100491.16
2017-09-12T20:13:05.644Z,100487.75
2017-09-12T20:15:34.102Z,100488.81
2017-09-12T20:18:02.528Z,100493.19
2017-09-12T20:20:31.748Z,100496.73
2017-09-12T20:23:00.227Z,100498.13
2017-09-12T20:25:28.715Z,100493.83
2017-09-12T20:27:57.192Z,100492.23
2017-09-12T20:30:25.679Z,100497.92
2017-09-12T20:32:54.118Z,100504.88
2017-09-12T20:35:22.636Z,100506.16
2017-09-12T20:37:51.083Z,100506.38
2017-09-12T20:40:19.507Z,100501.17
2017-09-12T20:42:47.983Z,100511.13
2017-09-12T20:45:16.403Z,100504.77
2017-09-12T20:47:44.856Z,100505.68
2017-09-12T20:50:13.275Z,100505.35
2017-09-12T20:52:41.803Z,100498.00
2017-09-12T20:55:10.287Z,100495.44
2017-09-12T20:57:38.791Z,100496.45
2017-09-12T21:00:07.255Z,100498.57
2017-09-12T21:02:35.695Z,100492.64
2017-09-12T21:05:04.115Z,100495.30
2017-09-12T21:07:32.599Z,100496.75
2017-09-12T21:10:01.024Z,100499.36
2017-09-12T21:12:29.463Z,100498.13
2017-09-12T21:14:57.878Z,100498.23
2017-09-12T21:17:26.348Z,100508.17
2017-09-12T21:19:54.807Z,100498.69
2017-09-12T21:22:23.236Z,100500.52
2017-09-12T21:24:51.675Z,100498.35
2017-09-12T21:27:20.124Z,100498.89
2017-09-12T21:29:49.337Z,100503.14
2017-09-12T21:32:17.760Z,100510.18
2017-09-12T21:34:46.314Z,100508.00
2017-09-12T21:37:14.739Z,100516.27
2017-09-12T21:39:43.184Z,100512.40
2017-09-12T21:42:11.660Z,100520.26
2017-09-12T21:44:40.108Z,100517.67
2017-09-12T21:47:09.299Z,100521.23
2017-09-12T21:49:37.742Z,100532.04
2017-09-12T21:52:06.164Z,100534.73
2017-09-12T21:54:35.379Z,100536.52
2017-09-12T21:57:04.595Z,100523.69
2017-09-12T21:59:33.079Z,100524.72
2017-09-12T22:02:01.499Z,100528.58
2017-09-12T22:04:30.035Z,100523.52
2017-09-12T22:06:58.459Z,100520.02
2017-09-12T22:09:26.999Z,100520.11
2017-09-12T22:11:55.423Z,100515.47
2017-09-12T22:14:23.838Z,100528.01
2017-09-12T22:16:53.472Z,100527.25
2017-09-12T22:19:21.952Z,100529.02
2017-09-12T22:21:50.439Z,100535.59
2017-09-12T22:24:18.859Z,100534.30
2017-09-12T22:26:47.295Z,100534.70
2017-09-12T22:29:15.783Z,100532.69
2017-09-12T22:31:44.261Z,100534.48
2017-09-12T22:34:12.679Z,100538.87
2017-09-12T22:36:41.116Z,100536.88
2017-09-12T22:39:09.642Z,100539.91
2017-09-12T22:41:38.099Z,100530.43
2017-09-12T22:44:06.529Z,100531.64
2017-09-12T22:46:34.971Z,100530.50
2017-09-12T22:49:03.396Z,100526.09
2017-09-12T22:51:31.844Z,100530.39
2017-09-12T22:54:00.291Z,100532.08
2017-09-12T22:56:28.739Z,100539.02
2017-09-12T22:58:57.163Z,100531.39
2017-09-12T23:01:25.602Z,100538.72
2017-09-12T23:03:54.030Z,100536.17
2017-09-12T23:06:22.575Z,100540.04
2017-09-12T23:08:51.768Z,100539.72
2017-09-12T23:11:21.001Z,100532.36
2017-09-12T23:13:49.443Z,100541.11
2017-09-12T23:16:17.968Z,100545.52
2017-09-12T23:18:46.415Z,100542.95
2017-09-12T23:21:15.602Z,100547.33
2017-09-12T23:23:44.041Z,100545.29
2017-09-12T23:26:12.507Z,100549.17
2017-09-12T23:28:40.946Z,100544.00
2017-09-12T23:31:09.363Z,100538.91
2017-09-12T23:33:37.853Z,100538.52
2017-09-12T23:36:06.275Z,100550.67
2017-09-12T23:38:34.719Z,100546.01
2017-09-12T23:41:03.135Z,100540.89
2017-09-12T23:43:31.588Z,100539.22
2017-09-12T23:46:00.015Z,100534.90
2017-09-12T23:48:28.471Z,100540.07
2017-09-12T23:50:56.891Z,100543.08
2017-09-12T23:53:26.096Z,100537.08
2017-09-12T23:55:55.288Z,100541.39
2017-09-12T23:58:24.499Z,100529.42
